Time;durP1;ratioP1;P1;durP2;ratioP2;P2;SDS_P1;SDS_P2;PMS_P1;PMS_P2;Temp;Humidity;BMP_temperature;BMP_pressure;BME280_temperature;BME280_humidity;BME280_pressure;Samples;Min_cycle;Max_cycle;Signal;HPM_P1;HPM_P2
2021/06/07 00:00:20;;;;;;;4.33;3.93;;;17.80;88.90;;;;;;5035728;28;20448;-78
2021/06/07 00:02:46;;;;;;;2.93;2.73;;;17.80;88.60;;;;;;5053529;28;20449;-78
2021/06/07 00:05:12;;;;;;;3.90;3.60;;;17.70;89.10;;;;;;5053822;28;20418;-78
2021/06/07 00:07:37;;;;;;;3.97;3.57;;;17.70;90.10;;;;;;5052476;28;21015;-78
2021/06/07 00:10:07;;;;;;;5.73;3.13;;;17.60;90.30;;;;;;5052838;28;20433;-78
2021/06/07 00:12:32;;;;;;;3.50;3.20;;;17.50;90.40;;;;;;5053408;28;20220;-78
2021/06/07 00:14:58;;;;;;;4.07;2.87;;;17.50;90.40;;;;;;5056914;28;20429;-78
2021/06/07 00:17:23;;;;;;;3.67;3.37;;;17.50;90.50;;;;;;5056548;28;20229;-78
2021/06/07 00:19:49;;;;;;;6.73;3.17;;;17.40;90.40;;;;;;5053670;28;20654;-78
2021/06/07 00:22:15;;;;;;;5.03;3.40;;;17.30;90.20;;;;;;5053641;28;20163;-78
2021/06/07 00:24:40;;;;;;;4.77;3.80;;;17.30;90.20;;;;;;5054090;28;20270;-78
2021/06/07 00:27:06;;;;;;;3.33;3.03;;;17.20;90.00;;;;;;5053063;28;20639;-77
2021/06/07 00:29:32;;;;;;;3.70;3.40;;;17.20;90.30;;;;;;5052685;28;20675;-78
2021/06/07 00:31:57;;;;;;;7.20;3.10;;;17.20;90.50;;;;;;5053060;28;20943;-78
2021/06/07 00:34:23;;;;;;;3.30;3.00;;;17.10;90.30;;;;;;5052960;28;20173;-78
2021/06/07 00:36:48;;;;;;;3.90;3.60;;;17.00;90.30;;;;;;5052724;28;20544;-78
2021/06/07 00:39:15;;;;;;;3.07;2.87;;;17.00;90.70;;;;;;5052724;28;20246;-79
2021/06/07 00:41:44;;;;;;;3.80;3.50;;;17.00;90.80;;;;;;5052998;28;20163;-78
2021/06/07 00:44:13;;;;;;;3.30;2.93;;;16.90;91.30;;;;;;5052407;28;20453;-78
2021/06/07 00:46:39;;;;;;;4.40;3.60;;;16.90;91.20;;;;;;5052626;28;20409;-78
2021/06/07 00:49:08;;;;;;;4.00;2.73;;;16.80;91.30;;;;;;5052761;28;21096;-77
2021/06/07 00:51:34;;;;;;;3.80;3.03;;;16.80;91.60;;;;;;5052525;28;20469;-77
2021/06/07 00:54:00;;;;;;;4.13;3.83;;;16.70;91.60;;;;;;5052505;28;20441;-78
2021/06/07 00:56:25;;;;;;;3.50;3.00;;;16.70;91.80;;;;;;5052267;28;20412;-79
2021/06/07 00:58:51;;;;;;;5.00;3.20;;;16.60;92.10;;;;;;5052673;28;20449;-79
2021/06/07 01:01:22;;;;;;;3.30;3.10;;;16.50;92.50;;;;;;5063485;28;20203;-78
2021/06/07 01:03:51;;;;;;;4.87;3.30;;;16.50;92.80;;;;;;5053174;28;20199;-78
2021/06/07 01:06:17;;;;;;;4.57;2.93;;;16.40;93.10;;;;;;5067681;28;20404;-78
2021/06/07 01:08:42;;;;;;;3.40;3.10;;;16.40;93.20;;;;;;5074922;28;20407;-79
2021/06/07 01:11:09;;;;;;;3.43;3.10;;;16.40;93.60;;;;;;5074636;28;20428;-78
2021/06/07 01:13:35;;;;;;;5.70;3.03;;;16.30;93.60;;;;;;5072672;28;20293;-78
2021/06/07 01:16:01;;;;;;;4.70;3.10;;;16.30;94.00;;;;;;5073021;28;20409;-78
2021/06/07 01:18:29;;;;;;;7.37;4.67;;;16.30;94.30;;;;;;5067442;28;20852;-78
2021/06/07 01:21:04;;;;;;;6.70;3.47;;;16.30;94.50;;;;;;5062530;28;20194;-78
2021/06/07 01:23:29;;;;;;;5.13;3.23;;;16.20;94.80;;;;;;5068499;28;20462;-79
2021/06/07 01:25:57;;;;;;;3.30;3.00;;;16.10;95.00;;;;;;5072156;28;20888;-78
2021/06/07 01:28:23;;;;;;;4.33;3.30;;;16.10;95.60;;;;;;5071941;28;20175;-78
2021/06/07 01:30:51;;;;;;;5.17;3.70;;;16.00;95.50;;;;;;5071945;28;20416;-78
2021/06/07 01:33:19;;;;;;;3.60;3.30;;;16.00;95.80;;;;;;5072411;28;20198;-78
2021/06/07 01:35:47;;;;;;;3.73;3.43;;;15.90;96.00;;;;;;5072010;28;20409;-78
2021/06/07 01:38:13;;;;;;;4.33;3.93;;;15.90;96.30;;;;;;5071976;28;20405;-78
2021/06/07 01:40:42;;;;;;;3.73;3.27;;;15.90;96.60;;;;;;5071897;28;20425;-78
2021/06/07 01:43:08;;;;;;;6.53;3.97;;;15.80;96.80;;;;;;5071712;28;20281;-78
2021/06/07 01:45:35;;;;;;;3.87;3.57;;;15.80;97.20;;;;;;5071867;28;20443;-78
2021/06/07 01:48:05;;;;;;;4.57;3.53;;;15.70;97.60;;;;;;5071746;28;20174;-78
2021/06/07 01:50:30;;;;;;;6.23;4.07;;;15.70;98.10;;;;;;5072249;28;20569;-78
2021/06/07 01:52:56;;;;;;;4.10;3.73;;;15.60;98.30;;;;;;5053967;28;20504;-77
2021/06/07 01:55:27;;;;;;;3.87;3.57;;;15.60;98.70;;;;;;5072047;28;20170;-78
2021/06/07 01:57:53;;;;;;;6.03;4.30;;;15.60;99.30;;;;;;5071772;28;20211;-78
2021/06/07 02:00:30;;;;;;;4.43;3.63;;;15.50;99.60;;;;;;5074563;28;20950;-78
2021/06/07 02:02:55;;;;;;;4.47;4.07;;;15.40;99.90;;;;;;5074353;28;20459;-78
2021/06/07 02:05:25;;;;;;;4.77;4.30;;;15.40;99.90;;;;;;5073907;28;20412;-78
2021/06/07 02:07:52;;;;;;;5.60;3.80;;;15.40;99.90;;;;;;5073510;28;20595;-79
2021/06/07 02:10:19;;;;;;;3.90;3.53;;;15.30;99.90;;;;;;5074472;28;20474;-78
2021/06/07 02:12:44;;;;;;;5.83;3.80;;;15.30;99.90;;;;;;5073686;28;20439;-78
2021/06/07 02:15:12;;;;;;;6.50;4.10;;;15.20;99.90;;;;;;5072038;28;20404;-78
2021/06/07 02:17:39;;;;;;;4.20;3.77;;;15.20;99.90;;;;;;5071694;28;20174;-78
2021/06/07 02:20:08;;;;;;;4.30;3.90;;;15.20;99.90;;;;;;5071908;28;20420;-77
2021/06/07 02:22:39;;;;;;;6.33;4.30;;;15.20;99.90;;;;;;5054542;28;20413;-80
2021/06/07 02:25:06;;;;;;;6.73;4.80;;;15.10;99.90;;;;;;5072326;28;20405;-78
2021/06/07 02:27:32;;;;;;;4.30;3.77;;;15.10;99.90;;;;;;5072102;28;20492;-78
2021/06/07 02:29:59;;;;;;;4.30;3.90;;;15.10;99.90;;;;;;5072461;28;20431;-78
2021/06/07 02:32:24;;;;;;;4.43;4.03;;;15.10;99.90;;;;;;5054813;28;20404;-79
2021/06/07 02:34:50;;;;;;;6.67;4.30;;;15.00;99.90;;;;;;5076594;28;20483;-79
2021/06/07 02:37:16;;;;;;;5.03;4.10;;;15.00;99.90;;;;;;5057282;28;20275;-78
2021/06/07 02:39:41;;;;;;;6.33;3.40;;;15.00;99.90;;;;;;5075592;28;20178;-79
2021/06/07 02:42:09;;;;;;;4.90;4.50;;;15.00;99.90;;;;;;5083047;28;20422;-79
2021/06/07 02:44:34;;;;;;;6.53;5.13;;;14.90;99.90;;;;;;5080471;28;20208;-79
2021/06/07 02:47:00;;;;;;;4.43;4.00;;;14.90;99.90;;;;;;5079492;28;20413;-78
2021/06/07 02:49:25;;;;;;;4.93;4.43;;;14.90;99.90;;;;;;5076688;28;20252;-78
2021/06/07 02:51:51;;;;;;;5.87;4.90;;;14.90;99.90;;;;;;5076504;28;20173;-78
2021/06/07 02:54:16;;;;;;;5.10;4.70;;;14.80;99.90;;;;;;5075841;28;20252;-78
2021/06/07 02:56:42;;;;;;;7.40;4.37;;;14.70;99.90;;;;;;5074645;28;20545;-78
2021/06/07 02:59:07;;;;;;;6.27;4.40;;;14.80;99.90;;;;;;5074968;28;20629;-78
2021/06/07 03:01:33;;;;;;;4.87;3.97;;;14.70;99.90;;;;;;5075028;28;20190;-78
2021/06/07 03:03:58;;;;;;;5.10;4.60;;;14.70;99.90;;;;;;5060514;28;20729;-78
2021/06/07 03:06:24;;;;;;;4.40;4.10;;;14.60;99.90;;;;;;5078736;28;20236;-80
2021/06/07 03:08:49;;;;;;;5.57;4.33;;;14.60;99.90;;;;;;5078575;28;20166;-79
2021/06/07 03:11:15;;;;;;;5.63;4.47;;;14.60;99.90;;;;;;5083460;28;20193;-79
2021/06/07 03:13:41;;;;;;;4.53;4.13;;;14.60;99.90;;;;;;5078032;28;20185;-79
2021/06/07 03:16:08;;;;;;;6.07;4.83;;;14.60;99.90;;;;;;5075080;28;20228;-77
2021/06/07 03:18:34;;;;;;;5.33;4.83;;;14.60;99.90;;;;;;5074296;28;20487;-78
2021/06/07 03:20:59;;;;;;;4.80;4.40;;;14.60;99.90;;;;;;5074221;28;20528;-78
2021/06/07 03:23:28;;;;;;;5.37;4.60;;;14.60;99.90;;;;;;5074224;28;20816;-78
2021/06/07 03:25:54;;;;;;;4.83;3.87;;;14.60;99.90;;;;;;5074107;28;20185;-78
2021/06/07 03:28:21;;;;;;;5.07;4.57;;;14.60;99.90;;;;;;5074252;28;20487;-78
2021/06/07 03:30:50;;;;;;;4.30;3.90;;;14.60;99.90;;;;;;5073891;28;20421;-78
2021/06/07 03:33:15;;;;;;;5.20;4.70;;;14.60;99.90;;;;;;5074242;28;20483;-78
2021/06/07 03:35:43;;;;;;;6.57;4.17;;;14.60;99.90;;;;;;5074224;28;20971;-78
2021/06/07 03:38:10;;;;;;;5.50;4.90;;;14.60;99.90;;;;;;5074287;28;20166;-78
2021/06/07 03:40:39;;;;;;;9.63;4.50;;;14.60;99.90;;;;;;5074204;28;20432;-78
2021/06/07 03:43:05;;;;;;;4.77;4.37;;;14.60;99.90;;;;;;5075642;28;20460;-78
2021/06/07 03:45:32;;;;;;;6.13;4.40;;;14.60;99.90;;;;;;5076726;28;20770;-78
2021/06/07 03:47:57;;;;;;;5.83;4.23;;;14.70;99.90;;;;;;5076416;28;20408;-78
2021/06/07 03:50:26;;;;;;;5.33;4.93;;;14.70;99.90;;;;;;5075461;28;20430;-78
2021/06/07 03:52:51;;;;;;;4.90;4.50;;;14.70;99.90;;;;;;5073672;28;20645;-78
2021/06/07 03:55:19;;;;;;;5.33;4.80;;;14.70;99.90;;;;;;5073585;28;20458;-78
2021/06/07 03:57:45;;;;;;;5.70;4.33;;;14.70;99.90;;;;;;5073540;28;20262;-79
2021/06/07 04:00:15;;;;;;;5.50;5.00;;;14.80;99.90;;;;;;5073604;28;20464;-78
2021/06/07 04:02:40;;;;;;;5.20;4.70;;;14.70;99.90;;;;;;5073555;28;20193;-78
2021/06/07 04:05:07;;;;;;;4.63;3.97;;;14.70;99.90;;;;;;5073240;28;20409;-78
2021/06/07 04:07:34;;;;;;;5.83;5.20;;;14.80;99.90;;;;;;5073001;28;20416;-78
2021/06/07 04:10:01;;;;;;;5.00;4.60;;;14.80;99.90;;;;;;5073376;28;20443;-78
2021/06/07 04:12:27;;;;;;;7.07;4.80;;;14.80;99.90;;;;;;5073097;28;20420;-78
2021/06/07 04:14:52;;;;;;;4.57;4.13;;;14.90;99.90;;;;;;5073142;28;20782;-78
2021/06/07 04:17:18;;;;;;;5.57;4.37;;;15.20;99.90;;;;;;5073439;28;20393;-78
2021/06/07 04:19:44;;;;;;;5.20;4.13;;;16.00;99.90;;;;;;5073536;28;20669;-78
2021/06/07 04:22:10;;;;;;;4.33;3.93;;;16.70;99.90;;;;;;5073169;28;20167;-78
2021/06/07 04:24:36;;;;;;;4.40;4.00;;;17.20;99.90;;;;;;5072689;28;20981;-77
2021/06/07 04:27:01;;;;;;;4.33;3.90;;;17.30;99.90;;;;;;5072622;28;20179;-77
2021/06/07 04:29:27;;;;;;;4.07;3.77;;;17.40;99.90;;;;;;5072484;28;20894;-77
2021/06/07 04:31:52;;;;;;;4.80;4.40;;;18.30;99.90;;;;;;5072348;28;20186;-78
2021/06/07 04:34:17;;;;;;;5.00;4.00;;;18.80;99.90;;;;;;5072404;28;20637;-77
2021/06/07 04:36:43;;;;;;;4.60;3.47;;;19.00;99.90;;;;;;5073060;28;20229;-78
2021/06/07 04:39:10;;;;;;;4.13;3.83;;;18.80;99.90;;;;;;5072952;28;20634;-79
2021/06/07 04:41:36;;;;;;;4.20;3.80;;;18.90;99.90;;;;;;5074567;28;20195;-79
2021/06/07 04:44:01;;;;;;;5.23;3.80;;;19.10;99.90;;;;;;5072872;28;20459;-78
2021/06/07 04:46:28;;;;;;;4.30;3.80;;;19.20;99.90;;;;;;5073039;28;20271;-79
2021/06/07 04:48:54;;;;;;;4.63;4.20;;;18.80;99.90;;;;;;5055861;28;20186;-79
2021/06/07 04:51:20;;;;;;;4.40;3.90;;;18.40;99.90;;;;;;5073611;28;20509;-78
2021/06/07 04:53:45;;;;;;;7.90;4.00;;;18.30;99.90;;;;;;5073026;28;20181;-78
2021/06/07 04:56:11;;;;;;;4.30;3.87;;;18.60;99.90;;;;;;5072452;28;20465;-79
2021/06/07 04:58:37;;;;;;;4.40;3.70;;;18.70;99.90;;;;;;5073203;28;20174;-78
2021/06/07 05:01:06;;;;;;;4.70;3.67;;;19.10;99.90;;;;;;5072816;28;20278;-78
2021/06/07 05:03:32;;;;;;;3.70;3.37;;;19.60;99.90;;;;;;5072346;28;20285;-78
2021/06/07 05:06:00;;;;;;;4.00;3.70;;;19.70;99.90;;;;;;5073085;28;20404;-77
2021/06/07 05:08:27;;;;;;;4.67;3.90;;;20.50;99.90;;;;;;5072772;28;20414;-79
2021/06/07 05:10:53;;;;;;;5.07;3.70;;;20.10;99.90;;;;;;5054789;28;20432;-78
2021/06/07 05:13:18;;;;;;;3.40;3.13;;;20.00;99.70;;;;;;5072282;28;20433;-78
2021/06/07 05:15:44;;;;;;;4.57;2.80;;;20.10;99.80;;;;;;5072300;28;20204;-79
2021/06/07 05:18:10;;;;;;;3.90;3.60;;;20.70;98.90;;;;;;5072446;28;20169;-78
2021/06/07 05:20:36;;;;;;;3.70;3.33;;;20.50;98.30;;;;;;5071968;28;20560;-77
2021/06/07 05:23:03;;;;;;;3.67;2.93;;;20.90;97.80;;;;;;5072769;28;20494;-78
2021/06/07 05:25:31;;;;;;;4.57;3.30;;;20.50;97.90;;;;;;5072540;28;20227;-78
2021/06/07 05:27:58;;;;;;;3.57;3.27;;;21.00;96.80;;;;;;5072381;28;20409;-78
2021/06/07 05:30:25;;;;;;;3.27;2.93;;;21.40;96.50;;;;;;5071994;28;20435;-78
2021/06/07 05:32:51;;;;;;;3.13;2.83;;;21.80;95.50;;;;;;5072567;28;20472;-78
2021/06/07 05:35:19;;;;;;;4.33;2.90;;;21.00;95.90;;;;;;5072616;28;20457;-78
2021/06/07 05:37:45;;;;;;;3.43;3.03;;;21.40;95.90;;;;;;5073080;28;20895;-79
2021/06/07 05:40:13;;;;;;;2.50;2.30;;;21.40;95.80;;;;;;5071977;28;20486;-78
2021/06/07 05:42:39;;;;;;;3.50;3.20;;;22.80;94.20;;;;;;5071790;28;20565;-77
2021/06/07 05:45:06;;;;;;;6.83;3.27;;;22.80;92.80;;;;;;5071948;28;20506;-77
2021/06/07 05:47:32;;;;;;;3.03;2.83;;;22.90;92.80;;;;;;5071724;28;20656;-78
2021/06/07 05:49:57;;;;;;;2.93;2.70;;;22.60;92.50;;;;;;5071919;28;20462;-78
2021/06/07 05:52:23;;;;;;;3.93;2.77;;;22.30;93.10;;;;;;5072055;28;20257;-79
2021/06/07 05:54:48;;;;;;;3.73;2.80;;;22.50;92.50;;;;;;5071926;28;20170;-79
2021/06/07 05:57:14;;;;;;;3.17;2.47;;;23.00;91.50;;;;;;5071523;28;20595;-76
2021/06/07 05:59:39;;;;;;;8.87;2.93;;;22.80;91.50;;;;;;5071391;28;20189;-76
2021/06/07 06:02:07;;;;;;;3.33;3.03;;;23.50;90.40;;;;;;5071379;28;20249;-76
2021/06/07 06:04:33;;;;;;;3.87;2.30;;;23.60;89.50;;;;;;5071359;28;20223;-76
2021/06/07 06:07:00;;;;;;;3.70;3.00;;;23.20;88.70;;;;;;5071433;28;20450;-76
2021/06/07 06:09:25;;;;;;;2.90;2.30;;;22.30;88.00;;;;;;5074504;28;20413;-76
2021/06/07 06:11:51;;;;;;;3.40;2.63;;;22.40;89.40;;;;;;5075047;28;20483;-76
2021/06/07 06:14:16;;;;;;;5.00;3.00;;;22.90;89.30;;;;;;5075403;28;20178;-76
2021/06/07 06:16:42;;;;;;;3.73;2.27;;;23.10;89.30;;;;;;5075116;28;20180;-76
2021/06/07 06:19:10;;;;;;;4.37;3.00;;;23.40;86.40;;;;;;5075417;28;20652;-76
2021/06/07 06:21:37;;;;;;;2.90;2.40;;;23.20;87.70;;;;;;5075050;28;20664;-76
2021/06/07 06:24:03;;;;;;;2.70;2.50;;;23.50;85.20;;;;;;5075036;28;20955;-76
2021/06/07 06:26:28;;;;;;;5.87;3.23;;;23.90;86.60;;;;;;5074766;28;20412;-77
2021/06/07 06:28:54;;;;;;;3.73;2.70;;;24.80;82.40;;;;;;5075047;28;20174;-76
2021/06/07 06:31:19;;;;;;;3.30;2.67;;;24.50;82.10;;;;;;5074730;28;20252;-76
2021/06/07 06:33:45;;;;;;;3.93;2.77;;;24.50;80.40;;;;;;5075207;28;20645;-76
2021/06/07 06:36:10;;;;;;;3.00;2.70;;;24.90;82.30;;;;;;5074914;28;20185;-76
2021/06/07 06:38:36;;;;;;;3.03;2.70;;;24.30;82.00;;;;;;5075177;28;20178;-76
2021/06/07 06:41:03;;;;;;;9.20;3.23;;;25.10;80.30;;;;;;5074649;28;20196;-76
2021/06/07 06:43:29;;;;;;;3.17;2.57;;;25.00;77.90;;;;;;5074839;28;20796;-76
2021/06/07 06:45:54;;;;;;;2.60;2.40;;;25.20;78.60;;;;;;5074862;28;20415;-76
2021/06/07 06:48:20;;;;;;;3.17;2.60;;;25.90;78.80;;;;;;5074805;28;20207;-76
2021/06/07 06:50:46;;;;;;;3.17;2.43;;;25.90;76.50;;;;;;5075043;28;20631;-76
2021/06/07 06:53:18;;;;;;;3.57;2.37;;;26.10;76.20;;;;;;5073595;28;20408;-77
2021/06/07 06:55:48;;;;;;;6.33;2.93;;;25.20;76.30;;;;;;5071553;28;20248;-76
2021/06/07 06:58:15;;;;;;;2.60;2.40;;;24.60;78.90;;;;;;5056725;28;20467;-76
2021/06/07 07:00:41;;;;;;;3.13;2.50;;;25.80;80.40;;;;;;5074991;28;20435;-76
2021/06/07 07:03:08;;;;;;;3.27;2.60;;;27.40;74.40;;;;;;5074597;28;20452;-76
2021/06/07 07:05:35;;;;;;;2.97;2.70;;;27.40;75.50;;;;;;5074560;28;20899;-75
2021/06/07 07:08:00;;;;;;;3.10;2.80;;;26.10;73.30;;;;;;5074367;28;20434;-75
2021/06/07 07:10:26;;;;;;;3.53;3.23;;;26.40;74.90;;;;;;5074599;28;20420;-75
2021/06/07 07:12:52;;;;;;;4.63;2.73;;;26.50;74.90;;;;;;5074599;28;20182;-74
2021/06/07 07:15:18;;;;;;;4.13;2.50;;;28.10;71.80;;;;;;5075582;28;20185;-74
2021/06/07 07:17:44;;;;;;;3.37;3.07;;;26.90;69.80;;;;;;5075697;28;20158;-74
2021/06/07 07:20:10;;;;;;;3.20;2.93;;;27.40;71.30;;;;;;5074945;28;20862;-75
2021/06/07 07:22:36;;;;;;;3.67;3.33;;;27.10;70.70;;;;;;5074534;28;20432;-74
2021/06/07 07:25:03;;;;;;;3.20;2.33;;;27.20;70.70;;;;;;5074725;28;20170;-74
2021/06/07 07:27:29;;;;;;;3.17;2.30;;;28.70;67.50;;;;;;5075323;28;20491;-73
2021/06/07 07:29:55;;;;;;;3.20;2.83;;;27.10;67.90;;;;;;5074013;28;20462;-75
2021/06/07 07:32:24;;;;;;;2.80;2.50;;;26.30;69.70;;;;;;5070877;28;20647;-75
2021/06/07 07:34:50;;;;;;;4.30;2.57;;;26.60;66.80;;;;;;5060469;28;20203;-75
2021/06/07 07:37:15;;;;;;;3.80;3.10;;;27.50;67.50;;;;;;5057034;28;20554;-75
2021/06/07 07:39:41;;;;;;;7.10;3.10;;;29.10;63.90;;;;;;5062588;28;20586;-75
2021/06/07 07:42:07;;;;;;;3.43;3.10;;;29.00;63.70;;;;;;5073075;28;20264;-75
2021/06/07 07:44:33;;;;;;;4.03;3.07;;;27.10;66.40;;;;;;5072131;28;20198;-75
2021/06/07 07:47:00;;;;;;;3.67;3.33;;;26.80;69.80;;;;;;5063742;28;20444;-75
2021/06/07 07:49:26;;;;;;;4.93;3.07;;;27.20;67.00;;;;;;5064471;28;20438;-74
2021/06/07 07:51:52;;;;;;;3.43;3.13;;;27.60;66.70;;;;;;5062081;28;20409;-74
2021/06/07 07:54:17;;;;;;;3.40;2.40;;;28.10;67.10;;;;;;5053841;28;20561;-75
2021/06/07 07:56:43;;;;;;;6.03;2.43;;;28.00;64.90;;;;;;5063752;28;20182;-75
2021/06/07 07:59:09;;;;;;;3.00;2.70;;;26.90;67.80;;;;;;5073140;28;20793;-75
2021/06/07 08:01:36;;;;;;;7.33;4.17;;;28.00;66.70;;;;;;5073154;28;20278;-75
2021/06/07 08:04:02;;;;;;;3.80;3.07;;;28.40;64.50;;;;;;5073154;28;20209;-75
2021/06/07 08:06:28;;;;;;;2.80;2.50;;;28.20;63.80;;;;;;5073231;28;20453;-74
2021/06/07 08:08:54;;;;;;;2.97;2.67;;;27.70;64.90;;;;;;5056192;28;20417;-75
2021/06/07 08:11:20;;;;;;;7.53;4.40;;;26.80;65.20;;;;;;5072451;28;20540;-76
2021/06/07 08:13:46;;;;;;;3.37;2.83;;;28.00;65.40;;;;;;5063708;28;20190;-76
2021/06/07 08:16:11;;;;;;;9.00;5.23;;;29.40;62.60;;;;;;5072054;28;20802;-75
2021/06/07 08:18:37;;;;;;;3.63;3.00;;;29.60;61.80;;;;;;5072002;28;20213;-75
2021/06/07 08:21:02;;;;;;;4.20;2.40;;;28.80;63.40;;;;;;5057397;28;20216;-76
2021/06/07 08:23:28;;;;;;;5.57;3.17;;;28.70;61.30;;;;;;5034212;28;20708;-76
2021/06/07 08:25:53;;;;;;;4.40;2.87;;;27.90;65.50;;;;;;5064934;28;20209;-76
2021/06/07 08:28:19;;;;;;;4.50;2.77;;;27.80;62.20;;;;;;5072210;28;20220;-77
2021/06/07 08:30:45;;;;;;;8.33;3.33;;;28.70;64.20;;;;;;5071716;28;20186;-76
2021/06/07 08:33:11;;;;;;;3.00;2.60;;;29.70;59.80;;;;;;5072325;28;20549;-77
2021/06/07 08:35:38;;;;;;;7.83;2.60;;;29.50;60.30;;;;;;5069481;28;20188;-76
2021/06/07 08:38:04;;;;;;;2.80;2.60;;;29.60;59.20;;;;;;5054631;28;20236;-76
2021/06/07 08:40:30;;;;;;;3.70;2.63;;;29.40;59.90;;;;;;5071542;28;20445;-76
2021/06/07 08:42:56;;;;;;;3.17;2.50;;;29.00;61.30;;;;;;5071581;28;20456;-73
2021/06/07 08:45:22;;;;;;;7.03;3.47;;;28.80;62.30;;;;;;5059937;28;20186;-76
2021/06/07 08:47:50;;;;;;;2.67;2.50;;;28.50;62.40;;;;;;5057253;28;20304;-76
2021/06/07 08:50:20;;;;;;;8.50;3.83;;;28.40;60.10;;;;;;5057461;28;20984;-74
2021/06/07 08:52:46;;;;;;;3.90;2.67;;;28.50;59.30;;;;;;5049835;28;20418;-76
2021/06/07 08:55:16;;;;;;;3.67;2.97;;;28.40;59.50;;;;;;5056404;28;20417;-75
2021/06/07 08:57:47;;;;;;;2.57;2.37;;;27.60;62.20;;;;;;5068289;28;20177;-76
2021/06/07 09:00:18;;;;;;;4.50;3.00;;;27.70;61.80;;;;;;5071359;28;20525;-75
2021/06/07 09:02:46;;;;;;;3.23;2.93;;;27.50;62.00;;;;;;5062479;28;20944;-76
2021/06/07 09:05:12;;;;;;;4.20;3.10;;;27.90;63.00;;;;;;5055793;28;20437;-75
2021/06/07 09:07:57;;;;;;;3.30;2.57;;;28.30;62.50;;;;;;5069464;28;20405;-74
2021/06/07 09:10:24;;;;;;;3.30;2.80;;;27.30;63.30;;;;;;5070031;28;20439;-75
2021/06/07 09:13:03;;;;;;;3.30;2.97;;;28.00;65.00;;;;;;5056666;28;49200;-75
2021/06/07 09:15:39;;;;;;;7.33;3.40;;;27.60;64.00;;;;;;5055148;28;20435;-75
2021/06/07 09:18:10;;;;;;;3.27;2.93;;;28.70;61.10;;;;;;5062760;28;20453;-75
2021/06/07 09:20:38;;;;;;;2.47;2.27;;;27.60;61.20;;;;;;5059225;28;20440;-74
2021/06/07 09:23:12;;;;;;;3.83;2.50;;;28.70;59.60;;;;;;5067071;28;20460;-76
2021/06/07 09:25:40;;;;;;;3.33;2.97;;;29.40;59.00;;;;;;5067592;28;20424;-77
2021/06/07 09:28:06;;;;;;;3.40;2.30;;;29.50;58.00;;;;;;5069654;28;20435;-76
2021/06/07 09:30:42;;;;;;;2.87;2.67;;;28.50;59.00;;;;;;5062794;28;20448;-75
2021/06/07 09:33:24;;;;;;;7.00;4.90;;;28.30;58.90;;;;;;5062728;28;20182;-74
2021/06/07 09:36:25;;;;;;;7.13;3.63;;;29.10;57.70;;;;;;5066441;28;20915;-74
2021/06/07 09:39:11;;;;;;;3.27;2.97;;;28.50;57.20;;;;;;5064779;28;20412;-76
2021/06/07 09:41:49;;;;;;;5.00;3.53;;;29.20;56.70;;;;;;5067222;28;20432;-77
2021/06/07 09:44:20;;;;;;;2.90;2.57;;;29.00;56.30;;;;;;5066058;28;20891;-77
2021/06/07 09:46:46;;;;;;;2.60;2.40;;;29.70;54.80;;;;;;5067328;28;20416;-77
2021/06/07 09:49:17;;;;;;;2.27;2.07;;;28.30;54.50;;;;;;5051582;28;20500;-76
2021/06/07 09:51:56;;;;;;;3.33;3.03;;;29.40;54.80;;;;;;5065872;28;20265;-76
2021/06/07 09:54:23;;;;;;;6.53;2.50;;;29.40;55.00;;;;;;5071712;28;20466;-76
2021/06/07 09:56:54;;;;;;;3.97;2.23;;;29.30;54.60;;;;;;5071501;28;20408;-75
2021/06/07 09:59:29;;;;;;;4.60;2.90;;;28.90;54.80;;;;;;5071617;28;20819;-75
2021/06/07 10:01:57;;;;;;;2.57;2.37;;;28.10;55.60;;;;;;5071514;28;20412;-76
2021/06/07 10:04:42;;;;;;;2.50;2.30;;;27.90;53.60;;;;;;5071232;28;20542;-75
2021/06/07 10:07:08;;;;;;;3.40;2.90;;;27.60;54.30;;;;;;5070887;28;20420;-75
2021/06/07 10:09:34;;;;;;;8.07;3.17;;;27.00;55.70;;;;;;5071493;28;20837;-75
2021/06/07 10:11:59;;;;;;;2.60;2.40;;;27.00;56.50;;;;;;5071208;28;20166;-76
2021/06/07 10:14:25;;;;;;;6.13;2.90;;;26.70;57.00;;;;;;5071338;28;20193;-76
2021/06/07 10:16:57;;;;;;;3.20;2.90;;;27.40;56.20;;;;;;5068804;28;20175;-76
2021/06/07 10:19:45;;;;;;;3.27;3.07;;;27.30;55.80;;;;;;5059400;28;20417;-76
2021/06/07 10:22:12;;;;;;;2.90;2.70;;;27.00;55.50;;;;;;5071186;28;20941;-76
2021/06/07 10:24:39;;;;;;;4.63;2.90;;;26.80;55.80;;;;;;5071070;28;20548;-76
2021/06/07 10:27:05;;;;;;;2.83;2.63;;;26.70;56.50;;;;;;5052516;28;20479;-76
2021/06/07 10:29:36;;;;;;;4.77;2.57;;;27.00;56.70;;;;;;5060872;28;20943;-76
2021/06/07 10:32:10;;;;;;;3.00;2.70;;;26.50;57.40;;;;;;5071076;28;20399;-75
2021/06/07 10:34:53;;;;;;;3.33;3.07;;;26.70;56.90;;;;;;5062271;28;20451;-76
2021/06/07 10:37:20;;;;;;;3.43;3.10;;;26.40;57.30;;;;;;5070951;28;20405;-76
2021/06/07 10:39:46;;;;;;;5.43;2.97;;;26.30;57.50;;;;;;5070773;28;20798;-76
2021/06/07 10:42:19;;;;;;;5.47;2.90;;;26.00;58.80;;;;;;5070728;28;20414;-76
2021/06/07 10:44:49;;;;;;;4.50;3.10;;;25.90;59.40;;;;;;5070985;28;20453;-77
2021/06/07 10:47:28;;;;;;;3.00;2.80;;;26.10;58.60;;;;;;5070862;28;20408;-77
2021/06/07 10:50:09;;;;;;;4.30;2.73;;;26.00;58.70;;;;;;5070852;28;20454;-76
2021/06/07 10:52:43;;;;;;;5.13;2.90;;;26.10;59.00;;;;;;5070712;28;20403;-76
2021/06/07 10:55:12;;;;;;;4.10;2.97;;;26.20;59.30;;;;;;5073452;28;20965;-75
2021/06/07 10:57:58;;;;;;;3.30;3.00;;;26.30;58.30;;;;;;5074039;28;20770;-75
2021/06/07 11:00:26;;;;;;;3.90;2.90;;;26.40;58.30;;;;;;5073932;28;20954;-76
2021/06/07 11:03:01;;;;;;;3.10;2.77;;;26.30;57.90;;;;;;5074238;28;20960;-76
2021/06/07 11:05:29;;;;;;;4.97;2.87;;;26.20;58.40;;;;;;5074011;28;20632;-75
2021/06/07 11:08:04;;;;;;;6.60;3.53;;;26.30;57.70;;;;;;5074079;28;20424;-76
2021/06/07 11:10:42;;;;;;;3.80;2.50;;;26.10;57.50;;;;;;5065560;28;20804;-75
2021/06/07 11:13:13;;;;;;;4.63;2.40;;;26.40;57.70;;;;;;5074126;28;20572;-76
2021/06/07 11:15:54;;;;;;;6.40;2.83;;;26.40;56.40;;;;;;5073980;28;20419;-76
2021/06/07 11:18:38;;;;;;;2.73;2.53;;;26.50;56.10;;;;;;5067426;28;20409;-76
2021/06/07 11:21:09;;;;;;;4.83;2.97;;;26.00;55.60;;;;;;5068282;28;20438;-76
2021/06/07 11:23:44;;;;;;;3.90;3.20;;;25.80;56.20;;;;;;5073909;28;20520;-75
2021/06/07 11:26:13;;;;;;;3.20;2.90;;;26.00;56.30;;;;;;5074090;28;20403;-75
2021/06/07 11:28:46;;;;;;;3.10;2.80;;;26.00;57.10;;;;;;5073995;28;20834;-75
2021/06/07 11:31:15;;;;;;;6.13;3.43;;;26.30;57.20;;;;;;5073615;28;20418;-75
2021/06/07 11:33:50;;;;;;;2.93;2.70;;;26.00;57.00;;;;;;5073620;28;20413;-75
2021/06/07 11:36:35;;;;;;;5.00;2.83;;;26.30;56.70;;;;;;5073600;28;20925;-75
2021/06/07 11:39:01;;;;;;;2.83;2.60;;;26.20;55.20;;;;;;5073582;28;20435;-75
2021/06/07 11:41:46;;;;;;;5.10;3.00;;;26.40;54.50;;;;;;5073137;28;20442;-75
2021/06/07 11:44:13;;;;;;;2.50;2.27;;;26.40;53.60;;;;;;5073442;28;20250;-75
2021/06/07 11:46:38;;;;;;;2.70;2.50;;;26.10;54.20;;;;;;5070417;28;20409;-75
2021/06/07 11:49:12;;;;;;;2.93;2.33;;;26.20;55.90;;;;;;5053820;28;20458;-75
2021/06/07 11:51:39;;;;;;;3.50;3.20;;;26.20;56.20;;;;;;5053256;28;20665;-75
2021/06/07 11:54:26;;;;;;;4.83;2.57;;;26.10;55.80;;;;;;5053147;28;20420;-75
2021/06/07 11:57:07;;;;;;;2.70;2.50;;;26.30;55.50;;;;;;5073028;28;20749;-75
2021/06/07 11:59:37;;;;;;;4.37;3.50;;;26.30;54.20;;;;;;5073031;28;20412;-76
2021/06/07 12:02:13;;;;;;;10.10;8.90;;;26.60;55.40;;;;;;5073650;28;20915;-75
2021/06/07 12:04:40;;;;;;;5.03;4.57;;;26.50;55.10;;;;;;5073063;28;20452;-76
2021/06/07 12:07:11;;;;;;;5.63;4.90;;;26.70;55.30;;;;;;5071955;28;20433;-75
2021/06/07 12:09:41;;;;;;;4.83;2.87;;;26.60;55.30;;;;;;5072787;28;20432;-76
2021/06/07 12:12:08;;;;;;;3.73;2.90;;;26.40;55.20;;;;;;5072841;28;20448;-77
2021/06/07 12:14:41;;;;;;;4.70;2.90;;;26.30;55.10;;;;;;5072950;28;20407;-76
2021/06/07 12:17:10;;;;;;;3.77;2.47;;;26.50;55.80;;;;;;5050112;28;20457;-77
2021/06/07 12:19:39;;;;;;;4.70;3.63;;;26.50;55.20;;;;;;5060671;28;20435;-77
2021/06/07 12:22:05;;;;;;;4.53;4.13;;;26.70;55.20;;;;;;5053131;28;20486;-77
2021/06/07 12:24:32;;;;;;;2.87;2.67;;;26.70;54.90;;;;;;5070078;28;20459;-75
2021/06/07 12:29:44;;;;;;;2.70;2.50;;;26.30;51.90;;;;;;5063393;28;20480;-75
2021/06/07 12:32:14;;;;;;;2.60;2.40;;;26.30;51.40;;;;;;5072355;28;20401;-76
2021/06/07 12:35:07;;;;;;;5.50;4.27;;;26.40;52.70;;;;;;5072329;28;20408;-76
2021/06/07 12:37:53;;;;;;;3.73;3.00;;;26.60;53.80;;;;;;5072186;28;20450;-76
2021/06/07 12:40:31;;;;;;;3.10;2.80;;;26.70;54.10;;;;;;5066980;28;20953;-77
2021/06/07 12:43:12;;;;;;;3.33;2.57;;;26.50;53.70;;;;;;5033400;28;20921;-76
2021/06/07 12:45:41;;;;;;;4.10;3.80;;;26.70;53.20;;;;;;5052554;28;20409;-76
2021/06/07 12:48:17;;;;;;;5.37;3.73;;;26.60;52.70;;;;;;5058362;28;20952;-76
2021/06/07 12:50:54;;;;;;;3.50;3.20;;;26.70;53.30;;;;;;5040234;28;20464;-76
2021/06/07 12:53:22;;;;;;;9.00;7.80;;;26.70;53.10;;;;;;5059735;28;20484;-76
2021/06/07 12:55:49;;;;;;;3.27;3.03;;;26.70;52.90;;;;;;5066967;28;20424;-76